Time;durP1;ratioP1;P1;durP2;ratioP2;P2;SDS_P1;SDS_P2;PMS_P1;PMS_P2;Temp;Humidity;BMP_temperature;BMP_pressure;BME280_temperature;BME280_humidity;BME280_pressure;Samples;Min_cycle;Max_cycle;Signal;HPM_P1;HPM_P2
2023/06/06 00:00:50;;;;;;;8.20;4.10;;;;;;;16.08;56.60;101101.42;108922;1261;57448;-52
2023/06/06 00:03:21;;;;;;;8.60;3.80;;;;;;;16.04;56.54;101105.98;108869;1257;58976;-54
2023/06/06 00:05:50;;;;;;;7.50;4.10;;;;;;;16.00;56.40;101103.05;108958;1257;63175;-53
2023/06/06 00:09:07;;;;;;;6.90;3.70;;;;;;;15.94;56.48;101100.54;108934;1257;60128;-54
2023/06/06 00:15:05;;;;;;;6.90;4.20;;;;;;;15.91;56.66;101101.40;108888;1258;57661;-53
2023/06/06 00:17:33;;;;;;;7.20;3.90;;;;;;;15.94;56.78;101103.23;108929;1257;58718;-53
2023/06/06 00:20:00;;;;;;;6.70;3.40;;;;;;;15.99;56.95;101106.14;108995;1258;63627;-55
2023/06/06 00:22:56;;;;;;;6.90;3.70;;;;;;;16.02;56.91;101107.61;108933;1260;61967;-54
2023/06/06 00:25:23;;;;;;;6.70;3.80;;;;;;;16.02;56.74;101108.20;108930;1257;62982;-54
2023/06/06 00:27:49;;;;;;;6.30;3.40;;;;;;;15.98;56.55;101105.16;108985;1257;57613;-50
2023/06/06 00:30:16;;;;;;;7.30;4.00;;;;;;;15.93;56.44;101104.04;108912;1257;57761;-53
2023/06/06 00:33:07;;;;;;;7.40;4.00;;;;;;;15.88;56.62;101103.28;108867;1261;64095;-54
2023/06/06 00:36:31;;;;;;;7.30;4.40;;;;;;;15.84;56.68;101106.11;108968;1257;62055;-54
2023/06/06 00:42:39;;;;;;;7.70;4.00;;;;;;;15.66;57.02;101106.58;108939;1257;57854;-52
2023/06/06 00:45:07;;;;;;;7.80;4.30;;;;;;;15.59;57.20;101105.81;109037;1257;57564;-54
2023/06/06 00:47:59;;;;;;;6.30;3.60;;;;;;;15.57;57.39;101105.98;108938;1257;64308;-53
2023/06/06 00:50:26;;;;;;;7.80;4.30;;;;;;;15.59;57.39;101104.58;108966;1257;60197;-53
2023/06/06 00:52:53;;;;;;;7.10;3.60;;;;;;;15.58;57.44;101103.10;108919;1257;64010;-54
2023/06/06 00:55:22;;;;;;;5.90;3.80;;;;;;;15.56;57.43;101103.43;108816;1257;58224;-52
2023/06/06 00:57:51;;;;;;;10.00;4.20;;;;;;;15.54;57.39;101102.88;108811;1257;59379;-53
2023/06/06 01:00:18;;;;;;;8.00;3.90;;;;;;;15.49;57.37;101109.17;108763;1256;63001;-52
2023/06/06 01:02:48;;;;;;;7.90;3.90;;;;;;;15.45;57.50;101109.21;108779;1258;61516;-52
2023/06/06 01:05:16;;;;;;;8.50;3.50;;;;;;;15.40;57.63;101110.27;108815;1257;64044;-53
2023/06/06 01:08:35;;;;;;;10.10;4.10;;;;;;;15.36;57.60;101112.64;108854;1259;57669;-53
2023/06/06 01:11:59;;;;;;;10.00;4.00;;;;;;;15.31;57.54;101115.02;109019;1260;57361;-52
2023/06/06 01:14:31;;;;;;;7.40;4.20;;;;;;;15.27;57.28;101111.66;108925;1257;64226;-54
2023/06/06 01:16:57;;;;;;;8.30;4.40;;;;;;;15.23;57.20;101106.34;108990;1257;61477;-54
2023/06/06 01:19:29;;;;;;;10.70;4.50;;;;;;;15.23;57.12;101107.55;108846;1257;64067;-54
2023/06/06 01:21:56;;;;;;;7.30;3.90;;;;;;;15.25;57.31;101114.48;108825;1261;57818;-54
2023/06/06 01:24:24;;;;;;;8.20;3.90;;;;;;;15.26;57.71;101114.56;109015;1257;57447;-53
2023/06/06 01:26:51;;;;;;;8.40;3.80;;;;;;;15.27;57.89;101117.70;108923;1257;64763;-53
2023/06/06 01:29:17;;;;;;;7.20;4.60;;;;;;;15.28;57.83;101119.34;108879;1257;61822;-53
2023/06/06 01:31:49;;;;;;;9.20;4.60;;;;;;;15.29;57.77;101118.20;107993;1257;64012;-56
2023/06/06 01:34:30;;;;;;;10.70;4.40;;;;;;;15.27;57.66;101117.27;108533;1260;58041;-53
2023/06/06 01:37:06;;;;;;;8.90;4.10;;;;;;;15.24;57.63;101118.10;108547;1264;58117;-53
2023/06/06 01:39:33;;;;;;;6.90;4.50;;;;;;;15.19;57.69;101117.47;108523;1260;62946;-53
2023/06/06 01:42:00;;;;;;;8.50;3.90;;;;;;;15.16;57.88;101119.69;108753;1260;60126;-51
2023/06/06 01:44:51;;;;;;;7.60;3.70;;;;;;;15.17;58.00;101122.60;108591;1260;59284;-53
2023/06/06 01:47:18;;;;;;;7.10;4.00;;;;;;;15.22;58.09;101122.30;108525;1260;57876;-52
2023/06/06 01:49:44;;;;;;;15.80;4.50;;;;;;;15.26;58.05;101120.78;108636;1260;59774;-54
2023/06/06 01:52:39;;;;;;;6.30;3.80;;;;;;;15.28;58.05;101123.10;108684;1260;64219;-52
2023/06/06 01:55:55;;;;;;;8.70;3.50;;;;;;;15.28;58.09;101118.34;108526;1260;60559;-53
2023/06/06 01:59:16;;;;;;;7.40;4.00;;;;;;;15.25;58.06;101119.41;108629;1263;64357;-53
2023/06/06 02:01:43;;;;;;;7.80;3.70;;;;;;;15.19;57.97;101122.59;108516;1261;58350;-53
2023/06/06 02:04:10;;;;;;;8.30;3.80;;;;;;;15.13;58.10;101125.40;108729;1260;58304;-53
2023/06/06 02:06:37;;;;;;;7.50;3.90;;;;;;;15.08;58.34;101124.13;108639;1263;65740;-53
2023/06/06 02:09:03;;;;;;;6.00;3.50;;;;;;;15.06;58.37;101131.52;108715;1261;61571;-52
2023/06/06 02:11:34;;;;;;;9.20;4.50;;;;;;;15.06;58.22;101132.77;108601;1257;63926;-53
2023/06/06 02:14:16;;;;;;;7.50;4.10;;;;;;;15.02;58.13;101131.84;108944;1257;58220;-52
2023/06/06 02:17:08;;;;;;;7.20;3.80;;;;;;;14.97;57.88;101133.52;108619;1260;59285;-52
2023/06/06 02:19:34;;;;;;;7.20;4.00;;;;;;;14.95;57.75;101130.91;108885;1257;65199;-53
2023/06/06 02:22:01;;;;;;;6.50;3.70;;;;;;;14.93;57.41;101133.01;108840;1257;61704;-53
2023/06/06 02:24:28;;;;;;;5.80;3.30;;;;;;;14.88;57.32;101129.16;108966;1257;64174;-53
2023/06/06 02:26:55;;;;;;;9.60;4.10;;;;;;;14.86;57.36;101132.13;108969;1257;58420;-53
2023/06/06 02:29:22;;;;;;;7.50;3.70;;;;;;;14.88;57.26;101136.96;108917;1257;60744;-53
2023/06/06 02:31:50;;;;;;;6.70;3.50;;;;;;;14.91;57.42;101136.15;108881;1257;65039;-53
2023/06/06 02:34:17;;;;;;;7.60;3.50;;;;;;;14.94;57.54;101134.10;108930;1256;61678;-52
2023/06/06 02:36:44;;;;;;;8.70;4.10;;;;;;;15.02;57.64;101132.77;109012;1256;63812;-53
2023/06/06 02:39:12;;;;;;;6.10;3.50;;;;;;;15.13;57.75;101129.67;108757;1257;58219;-52
2023/06/06 02:41:39;;;;;;;8.50;4.00;;;;;;;15.25;57.73;101130.23;108884;1257;58872;-52
2023/06/06 02:44:31;;;;;;;6.10;3.80;;;;;;;15.31;57.62;101128.98;108731;1259;65188;-53
2023/06/06 02:46:58;;;;;;;7.20;4.20;;;;;;;15.34;57.28;101128.15;108931;1257;71200;-53
2023/06/06 02:49:27;;;;;;;5.80;3.30;;;;;;;15.35;56.97;101128.39;108811;1259;62754;-54
2023/06/06 02:51:55;;;;;;;7.80;3.80;;;;;;;15.36;56.58;101131.13;108835;1261;58241;-54
2023/06/06 02:54:21;;;;;;;7.00;3.80;;;;;;;15.36;56.21;101136.50;108644;1257;59241;-53
2023/06/06 02:56:48;;;;;;;7.60;4.00;;;;;;;15.34;56.38;101136.69;108908;1257;63971;-53
2023/06/06 02:59:37;;;;;;;6.90;3.80;;;;;;;15.33;56.42;101136.59;108875;1257;61649;-53
2023/06/06 03:02:32;;;;;;;6.20;3.90;;;;;;;15.32;56.18;101136.85;108613;1257;63859;-52
2023/06/06 03:05:29;;;;;;;;;;;;;;;15.30;55.82;101135.25;108525;1257;58489;-53
2023/06/06 03:08:21;;;;;;;9.00;4.80;;;;;;;15.29;55.42;101132.35;108790;1259;60750;-53
2023/06/06 03:13:55;;;;;;;7.90;4.30;;;;;;;15.32;55.73;101134.16;108729;1257;60479;-52
2023/06/06 03:16:51;;;;;;;8.10;4.10;;;;;;;15.35;55.69;101132.84;108806;1257;62470;-53
2023/06/06 03:19:45;;;;;;;8.90;4.50;;;;;;;15.42;55.69;101134.17;108672;1257;58639;-52
2023/06/06 03:22:12;;;;;;;6.70;4.20;;;;;;;15.56;55.51;101136.45;108985;1257;58624;-55
2023/06/06 03:24:39;;;;;;;7.60;3.90;;;;;;;15.70;55.33;101134.89;108744;1259;63737;-53
2023/06/06 03:28:00;;;;;;;10.40;4.30;;;;;;;15.80;55.31;101137.53;108780;1260;61936;-52
2023/06/06 03:30:27;;;;;;;7.20;4.10;;;;;;;15.90;55.05;101136.64;108870;1256;62666;-53
2023/06/06 03:33:19;;;;;;;8.10;4.10;;;;;;;15.97;54.67;101134.94;109010;1256;58126;-51
2023/06/06 03:36:11;;;;;;;7.10;4.30;;;;;;;16.04;54.86;101133.61;108919;1257;58956;-51
2023/06/06 03:38:39;;;;;;;7.90;4.20;;;;;;;16.09;55.08;101135.24;108673;1260;65322;-54
2023/06/06 03:41:09;;;;;;;8.10;4.40;;;;;;;16.11;55.48;101132.41;108742;1260;61688;-52
2023/06/06 03:43:37;;;;;;;7.90;4.10;;;;;;;16.16;56.11;101134.12;108543;1260;64564;-52
2023/06/06 03:46:04;;;;;;;7.70;4.80;;;;;;;16.22;56.36;101134.65;108702;1260;58244;-52
2023/06/06 03:52:40;;;;;;;6.70;4.10;;;;;;;16.45;55.90;101133.73;108613;1260;65070;-53
2023/06/06 03:55:08;;;;;;;7.00;4.30;;;;;;;16.56;56.19;101130.62;108821;1260;61689;-52
2023/06/06 03:57:55;;;;;;;6.90;4.00;;;;;;;16.63;56.50;101132.98;108755;1260;64414;-53
2023/06/06 04:00:22;;;;;;;7.40;4.30;;;;;;;16.70;57.05;101131.80;108536;1260;58730;-53
2023/06/06 04:02:49;;;;;;;9.10;4.10;;;;;;;16.78;57.41;101134.55;108653;1260;58358;-53
2023/06/06 04:06:07;;;;;;;7.50;4.20;;;;;;;16.85;57.72;101139.05;108743;1260;64357;-53
2023/06/06 04:08:35;;;;;;;7.00;4.20;;;;;;;17.00;57.60;101139.42;108324;1260;61244;-53
2023/06/06 04:11:02;;;;;;;8.30;4.30;;;;;;;17.14;57.32;101136.68;104835;1263;64128;-54
2023/06/06 04:14:10;;;;;;;9.30;4.70;;;;;;;17.23;57.35;101137.05;108831;1258;60151;-52
2023/06/06 04:16:37;;;;;;;7.10;4.00;;;;;;;17.32;57.57;101136.20;109044;1256;58198;-51
2023/06/06 04:19:04;;;;;;;10.70;4.70;;;;;;;17.39;57.68;101138.53;108922;1257;64000;-53
2023/06/06 04:24:56;;;;;;;8.70;5.10;;;;;;;17.54;57.58;101132.17;108696;1257;64570;-54
2023/06/06 04:27:23;;;;;;;11.40;4.60;;;;;;;17.60;57.81;101133.65;108864;1257;58426;-55
2023/06/06 04:29:51;;;;;;;9.60;4.10;;;;;;;17.71;57.91;101135.86;108834;1262;58397;-55
2023/06/06 04:36:00;;;;;;;7.00;3.80;;;;;;;18.00;57.55;101129.09;108961;1256;61492;-51
2023/06/06 04:38:29;;;;;;;7.40;4.20;;;;;;;18.11;57.32;101128.45;109075;1256;62613;-53
2023/06/06 04:41:01;;;;;;;9.10;4.70;;;;;;;18.24;57.14;101131.64;108898;1256;58370;-52
2023/06/06 04:43:51;;;;;;;13.40;3.90;;;;;;;18.35;56.98;101130.00;108817;1257;58250;-53
2023/06/06 04:46:21;;;;;;;6.90;4.20;;;;;;;18.40;56.99;101134.17;108781;1259;64008;-52
2023/06/06 04:48:52;;;;;;;7.60;4.40;;;;;;;18.42;57.03;101132.66;108885;1257;62195;-54
2023/06/06 04:51:29;;;;;;;7.40;4.40;;;;;;;18.45;57.06;101137.54;105595;1257;72632;-53
2023/06/06 04:57:07;;;;;;;6.00;3.90;;;;;;;18.53;56.92;101138.81;108717;1257;58531;-53
2023/06/06 04:59:33;;;;;;;7.70;4.00;;;;;;;18.64;56.30;101140.05;108888;1256;65308;-53
2023/06/06 05:02:12;;;;;;;8.00;3.00;;;;;;;18.71;54.52;101136.56;108758;1257;61826;-53
2023/06/06 05:04:42;;;;;;;10.30;2.90;;;;;;;18.76;50.91;101136.48;108512;1257;64153;-53
2023/06/06 05:07:09;;;;;;;6.40;3.30;;;;;;;18.82;49.82;101135.20;108851;1257;58682;-54
2023/06/06 05:09:36;;;;;;;6.20;3.30;;;;;;;18.89;49.12;101134.13;108962;1256;58582;-53
2023/06/06 05:12:03;;;;;;;7.20;3.60;;;;;;;18.95;48.60;101129.92;108890;1256;58578;-53
2023/06/06 05:14:31;;;;;;;5.70;3.20;;;;;;;19.02;48.55;101132.29;108863;1256;60459;-53
2023/06/06 05:16:58;;;;;;;8.20;3.60;;;;;;;19.08;48.79;101129.84;108945;1256;64387;-53
2023/06/06 05:19:24;;;;;;;6.60;3.30;;;;;;;19.13;49.02;101128.98;108937;1256;59975;-54
2023/06/06 05:21:51;;;;;;;7.20;3.00;;;;;;;19.17;48.09;101131.89;108967;1256;58364;-54
2023/06/06 05:24:18;;;;;;;6.80;3.10;;;;;;;19.23;46.36;101130.10;108926;1256;65100;-54
2023/06/06 05:27:30;;;;;;;6.30;3.30;;;;;;;19.27;46.53;101129.39;108924;1257;61477;-54
2023/06/06 05:29:56;;;;;;;6.50;2.80;;;;;;;19.38;47.12;101131.77;108877;1257;62774;-54
2023/06/06 05:32:23;;;;;;;7.20;3.30;;;;;;;19.50;47.07;101128.15;108899;1257;58290;-54
2023/06/06 05:34:49;;;;;;;7.60;3.60;;;;;;;19.59;47.17;101130.34;108930;1257;58375;-54
2023/06/06 05:37:19;;;;;;;6.90;3.20;;;;;;;19.70;47.17;101130.80;108909;1257;63659;-52
2023/06/06 05:39:46;;;;;;;5.40;3.00;;;;;;;19.79;46.58;101129.42;108674;1257;61514;-55
2023/06/06 05:42:12;;;;;;;5.70;3.00;;;;;;;19.88;46.89;101126.40;108878;1256;63857;-59
2023/06/06 05:44:39;;;;;;;6.30;3.10;;;;;;;19.95;46.90;101127.21;108908;1256;58260;-54
2023/06/06 05:47:07;;;;;;;5.10;2.90;;;;;;;20.04;47.90;101128.95;108998;1256;58423;-55
2023/06/06 05:49:34;;;;;;;7.60;3.30;;;;;;;20.11;49.22;101128.52;108948;1256;65219;-55
2023/06/06 05:52:26;;;;;;;7.50;3.50;;;;;;;20.16;49.58;101129.61;108997;1256;61534;-54
2023/06/06 05:55:01;;;;;;;5.60;2.90;;;;;;;20.18;49.32;101128.45;108978;1256;64361;-55
2023/06/06 05:57:27;;;;;;;6.70;3.50;;;;;;;20.19;49.29;101127.98;108967;1256;59198;-55
2023/06/06 05:59:55;;;;;;;5.80;3.20;;;;;;;20.22;49.21;101127.34;108960;1256;58322;-55
2023/06/06 06:02:22;;;;;;;7.90;3.30;;;;;;;20.24;48.96;101130.81;108975;1256;63977;-55
2023/06/06 06:04:52;;;;;;;7.60;3.40;;;;;;;20.27;48.93;101132.51;108958;1256;70010;-55
2023/06/06 06:07:19;;;;;;;7.00;3.10;;;;;;;20.31;49.30;101132.10;108885;1256;63911;-55
2023/06/06 06:09:46;;;;;;;6.80;3.40;;;;;;;20.36;49.16;101135.48;108938;1256;58428;-56
2023/06/06 06:12:12;;;;;;;10.10;3.70;;;;;;;20.43;49.09;101133.39;108940;1256;58629;-59
2023/06/06 06:14:39;;;;;;;7.90;3.10;;;;;;;20.53;48.63;101131.04;108937;1256;66277;-59
2023/06/06 06:17:06;;;;;;;7.10;3.10;;;;;;;20.62;48.15;101132.20;108926;1256;61664;-58
2023/06/06 06:19:33;;;;;;;9.30;3.20;;;;;;;20.70;47.29;101131.51;108854;1256;64324;-59
2023/06/06 06:21:59;;;;;;;6.50;3.00;;;;;;;20.77;46.08;101127.67;108892;1256;58493;-60
2023/06/06 06:24:26;;;;;;;5.30;2.60;;;;;;;20.84;45.76;101128.69;108830;1258;58529;-60
2023/06/06 06:26:52;;;;;;;5.40;2.90;;;;;;;20.91;45.82;101127.20;108945;1256;58513;-59
2023/06/06 06:29:19;;;;;;;6.60;3.20;;;;;;;20.99;45.39;101126.73;108857;1256;58799;-59
2023/06/06 06:31:45;;;;;;;6.00;3.00;;;;;;;21.07;45.08;101126.54;108847;1257;64544;-59
2023/06/06 06:34:12;;;;;;;6.70;2.80;;;;;;;21.15;44.87;101126.29;108830;1257;59165;-59
2023/06/06 06:36:39;;;;;;;5.80;2.90;;;;;;;21.25;44.64;101125.55;108880;1257;58374;-59
2023/06/06 06:39:05;;;;;;;6.20;2.60;;;;;;;21.35;44.17;101128.71;108848;1256;58677;-59
2023/06/06 06:41:32;;;;;;;5.30;2.60;;;;;;;21.45;43.95;101131.98;108937;1256;60311;-59
2023/06/06 06:43:58;;;;;;;6.10;2.90;;;;;;;21.56;43.24;101128.08;108850;1257;62833;-59
2023/06/06 06:46:25;;;;;;;4.60;2.50;;;;;;;21.66;43.38;101128.69;108854;1257;58115;-60
2023/06/06 06:48:52;;;;;;;6.90;2.80;;;;;;;21.77;43.21;101126.41;108928;1256;58289;-58
2023/06/06 06:51:21;;;;;;;6.00;2.70;;;;;;;21.86;43.48;101124.30;108818;1256;64950;-58
2023/06/06 06:53:49;;;;;;;6.00;2.60;;;;;;;21.95;42.77;101121.68;108744;1257;60475;-59
2023/06/06 06:56:16;;;;;;;5.60;3.10;;;;;;;22.04;41.27;101126.50;108825;1257;63895;-58
2023/06/06 06:58:43;;;;;;;5.60;2.90;;;;;;;22.11;40.67;101123.36;108893;1257;58331;-65
2023/06/06 07:01:09;;;;;;;7.40;3.20;;;;;;;22.17;41.26;101124.65;107589;1256;60476;-57
2023/06/06 07:03:37;;;;;;;5.20;2.60;;;;;;;22.22;41.21;101124.87;104849;1260;65028;-58
2023/06/06 07:06:07;;;;;;;5.00;2.50;;;;;;;22.28;40.93;101125.17;108809;1257;61680;-59
2023/06/06 07:08:34;;;;;;;4.50;2.30;;;;;;;22.35;40.81;101125.92;108826;1260;64195;-60
2023/06/06 07:11:02;;;;;;;9.30;3.20;;;;;;;22.42;40.12;101129.50;108924;1256;58447;-61
2023/06/06 07:13:31;;;;;;;5.70;3.00;;;;;;;22.50;40.29;101128.17;108938;1257;58252;-60
2023/06/06 07:15:57;;;;;;;7.00;2.60;;;;;;;22.60;40.63;101127.03;108842;1257;64919;-60
2023/06/06 07:18:25;;;;;;;6.30;2.50;;;;;;;22.70;40.05;101125.25;108974;1257;60319;-60
2023/06/06 07:20:51;;;;;;;7.00;2.80;;;;;;;22.79;40.03;101127.73;108927;1257;63868;-60
2023/06/06 07:23:18;;;;;;;4.70;2.50;;;;;;;22.89;40.64;101126.29;108968;1256;59061;-60
2023/06/06 07:25:45;;;;;;;6.00;2.90;;;;;;;22.99;41.08;101128.10;108935;1257;58465;-60
2023/06/06 07:28:13;;;;;;;6.30;2.70;;;;;;;23.09;40.97;101128.14;108950;1256;65745;-59
2023/06/06 07:30:41;;;;;;;5.60;2.50;;;;;;;23.18;40.97;101120.40;108914;1257;61653;-60
2023/06/06 07:33:08;;;;;;;5.20;2.60;;;;;;;23.29;40.09;101120.04;108860;1257;64255;-60
2023/06/06 07:35:36;;;;;;;5.30;1.80;;;;;;;23.38;38.74;101115.32;108900;1257;58158;-59
2023/06/06 07:38:02;;;;;;;4.40;2.00;;;;;;;23.45;36.74;101112.60;108890;1257;59434;-59
2023/06/06 07:40:29;;;;;;;3.90;1.50;;;;;;;23.51;35.00;101111.83;108956;1256;63869;-60
2023/06/06 07:42:57;;;;;;;5.70;1.60;;;;;;;23.58;34.28;101106.96;108918;1257;61384;-61
2023/06/06 07:45:24;;;;;;;4.80;1.90;;;;;;;23.64;34.02;101108.27;108942;1256;62839;-60
2023/06/06 07:47:51;;;;;;;4.90;1.80;;;;;;;23.72;34.67;101112.73;108816;1257;58240;-60
2023/06/06 07:50:18;;;;;;;5.00;2.00;;;;;;;23.79;34.97;101110.23;108949;1256;59018;-59
2023/06/06 07:52:45;;;;;;;7.20;2.00;;;;;;;23.87;34.97;101109.06;108953;1257;64419;-60
2023/06/06 07:55:12;;;;;;;20.20;3.70;;;;;;;23.97;35.23;101104.14;108985;1256;60441;-62
2023/06/06 07:57:39;;;;;;;5.30;1.80;;;;;;;24.09;35.70;101104.04;108959;1257;64141;-60
2023/06/06 08:00:10;;;;;;;5.80;2.10;;;;;;;24.20;35.40;101107.02;108941;1256;58369;-59
2023/06/06 08:02:42;;;;;;;3.60;1.60;;;;;;;24.32;36.03;101109.39;108845;1257;58326;-60
2023/06/06 08:05:10;;;;;;;4.00;1.80;;;;;;;24.43;35.80;101109.00;108859;1257;63771;-60
2023/06/06 08:07:39;;;;;;;3.90;1.60;;;;;;;24.55;34.95;101104.42;108728;1257;61493;-60
2023/06/06 08:10:06;;;;;;;4.60;1.70;;;;;;;24.67;33.84;101103.13;108923;1257;62586;-59
2023/06/06 08:12:33;;;;;;;4.10;1.70;;;;;;;24.76;32.13;101102.23;108953;1257;58254;-60
2023/06/06 08:15:00;;;;;;;4.90;1.50;;;;;;;24.84;31.04;101101.20;108842;1258;60155;-60
2023/06/06 08:17:27;;;;;;;3.30;1.30;;;;;;;24.94;30.72;101102.12;108927;1257;65022;-60
2023/06/06 08:19:55;;;;;;;8.50;1.60;;;;;;;25.06;31.16;101103.23;108982;1257;60225;-61
2023/06/06 08:22:21;;;;;;;4.00;1.60;;;;;;;25.19;31.19;101104.27;108937;1256;62593;-61
2023/06/06 08:24:48;;;;;;;3.60;1.50;;;;;;;25.34;30.55;101104.56;108927;1256;58231;-61
2023/06/06 08:27:15;;;;;;;4.00;1.50;;;;;;;25.52;30.53;101099.75;108907;1257;58156;-62
2023/06/06 08:29:41;;;;;;;4.30;1.60;;;;;;;25.69;29.91;101101.77;108962;1256;59051;-60
2023/06/06 08:32:08;;;;;;;3.90;1.60;;;;;;;25.83;29.50;101096.34;108918;1256;58128;-59
2023/06/06 08:34:37;;;;;;;3.80;1.60;;;;;;;25.97;29.48;101092.80;108918;1257;63938;-60
2023/06/06 08:37:04;;;;;;;4.70;1.70;;;;;;;26.10;29.52;101092.89;108935;1256;58754;-60
2023/06/06 08:39:31;;;;;;;8.30;1.90;;;;;;;26.24;29.03;101090.48;108999;1257;58515;-58
2023/06/06 08:41:57;;;;;;;4.20;1.90;;;;;;;26.38;28.80;101091.95;108903;1256;63642;-61
2023/06/06 08:44:24;;;;;;;4.10;1.70;;;;;;;26.51;28.33;101091.30;108771;1257;68997;-62
2023/06/06 08:46:52;;;;;;;5.90;1.70;;;;;;;26.63;28.70;101086.80;108965;1256;63826;-62
2023/06/06 08:49:19;;;;;;;4.90;2.10;;;;;;;26.76;28.17;101088.17;108928;1257;58428;-62
2023/06/06 08:51:50;;;;;;;4.50;1.80;;;;;;;26.87;28.20;101085.02;108931;1256;58376;-59
2023/06/06 08:54:19;;;;;;;4.90;1.50;;;;;;;26.96;28.05;101082.38;108953;1256;65232;-59
2023/06/06 08:56:46;;;;;;;4.70;1.80;;;;;;;27.03;28.13;101083.58;108918;1256;61710;-59
2023/06/06 08:59:13;;;;;;;4.00;1.60;;;;;;;27.07;28.05;101082.77;108890;1257;64073;-60
2023/06/06 09:01:40;;;;;;;5.10;2.00;;;;;;;27.09;27.87;101082.24;108910;1257;58931;-61
2023/06/06 09:04:07;;;;;;;4.80;1.70;;;;;;;27.08;27.38;101080.41;108906;1257;58180;-61
2023/06/06 09:06:40;;;;;;;4.50;1.70;;;;;;;27.08;27.47;101080.20;108924;1257;65124;-61
2023/06/06 09:09:09;;;;;;;5.10;1.70;;;;;;;27.11;27.69;101077.11;108939;1257;60327;-62
2023/06/06 09:11:36;;;;;;;5.10;1.70;;;;;;;27.13;26.85;101072.06;108843;1257;72305;-54
2023/06/06 09:14:06;;;;;;;5.00;1.80;;;;;;;27.12;26.68;101073.14;108896;1257;58540;-52
2023/06/06 09:16:33;;;;;;;3.00;1.40;;;;;;;27.08;26.04;101072.39;108973;1257;58409;-54
2023/06/06 09:19:01;;;;;;;4.10;1.70;;;;;;;27.01;26.01;101072.38;108903;1258;64032;-52
2023/06/06 09:21:29;;;;;;;6.00;2.00;;;;;;;26.99;26.88;101073.34;108949;1256;61397;-52
2023/06/06 09:23:56;;;;;;;5.70;2.00;;;;;;;27.04;27.66;101067.91;108940;1257;62471;-53
2023/06/06 09:26:23;;;;;;;7.10;2.00;;;;;;;27.14;26.99;101061.92;108949;1257;58721;-53
2023/06/06 09:28:50;;;;;;;4.40;1.80;;;;;;;27.21;26.44;101061.98;108908;1256;58860;-53
2023/06/06 09:31:27;;;;;;;5.10;1.90;;;;;;;27.29;26.82;101057.65;108959;1256;65625;-53
2023/06/06 09:33:54;;;;;;;5.00;1.70;;;;;;;27.39;26.20;101052.98;108946;1257;62415;-54
2023/06/06 09:36:22;;;;;;;4.60;1.60;;;;;;;27.49;26.42;101057.50;108929;1257;64021;-54
2023/06/06 09:38:50;;;;;;;5.50;2.20;;;;;;;27.61;26.51;101056.33;109020;1253;352585;-54
2023/06/06 09:54:18;;;;;;;5.90;2.20;;;;;;;27.69;25.62;101050.27;102580;1286;605765;-53
2023/06/06 09:56:46;;;;;;;5.60;2.30;;;;;;;27.88;25.60;101045.59;104299;1267;99924;-55
2023/06/06 09:59:13;;;;;;;7.80;2.00;;;;;;;27.80;25.69;101044.07;108460;1266;57158;-55
2023/06/06 10:01:40;;;;;;;4.80;2.00;;;;;;;27.70;25.13;101045.15;108482;1265;63995;-54
2023/06/06 10:04:07;;;;;;;5.10;2.20;;;;;;;27.58;25.76;101044.88;108520;1264;61927;-54
2023/06/06 10:06:37;;;;;;;4.80;2.40;;;;;;;27.47;26.35;101043.86;108363;1266;65254;-53
2023/06/06 10:09:05;;;;;;;5.00;2.00;;;;;;;27.40;26.08;101040.34;108499;1266;57334;-53
2023/06/06 10:11:33;;;;;;;6.50;2.20;;;;;;;27.41;26.07;101036.42;108572;1265;57205;-53
2023/06/06 10:14:01;;;;;;;5.90;2.30;;;;;;;27.49;25.06;101033.42;108549;1266;63923;-53
2023/06/06 10:16:28;;;;;;;5.40;1.80;;;;;;;27.48;24.56;101030.81;108452;1266;61603;-54
2023/06/06 10:18:57;;;;;;;4.70;2.10;;;;;;;27.46;24.75;101030.73;108436;1265;64261;-54
2023/06/06 10:21:27;;;;;;;5.10;1.80;;;;;;;27.44;24.99;101032.74;108464;1266;57585;-54
2023/06/06 10:23:55;;;;;;;3.70;1.60;;;;;;;27.44;25.29;101035.86;108525;1265;57624;-53
2023/06/06 10:26:37;;;;;;;6.60;2.20;;;;;;;27.47;25.02;101034.94;108502;1266;64954;-53
2023/06/06 10:29:44;;;;;;;4.30;1.70;;;;;;;27.48;25.06;101031.14;108491;1266;62191;-53
2023/06/06 10:32:15;;;;;;;8.60;2.30;;;;;;;27.50;24.54;101029.46;108298;1266;62547;-54
2023/06/06 10:34:48;;;;;;;4.70;1.70;;;;;;;27.47;24.78;101034.19;108799;1259;57822;-54
2023/06/06 10:37:17;;;;;;;5.10;2.20;;;;;;;27.42;25.02;101033.02;108761;1260;57449;-54
2023/06/06 10:39:47;;;;;;;6.60;2.30;;;;;;;27.44;25.18;101038.20;108880;1259;64247;-54
2023/06/06 10:42:14;;;;;;;4.50;2.00;;;;;;;27.54;25.22;101036.96;108856;1258;60641;-54
2023/06/06 10:44:54;;;;;;;4.80;2.30;;;;;;;27.68;25.77;101039.46;108775;1259;63843;-52
2023/06/06 10:47:21;;;;;;;4.50;1.70;;;;;;;27.80;25.93;101035.09;108821;1260;57707;-53
2023/06/06 10:50:12;;;;;;;4.40;2.00;;;;;;;27.87;24.99;101032.61;108862;1258;58330;-54
2023/06/06 10:52:46;;;;;;;4.60;2.00;;;;;;;27.83;24.79;101035.48;108873;1258;63176;-53
2023/06/06 10:55:17;;;;;;;5.80;2.30;;;;;;;27.76;24.96;101033.95;108843;1258;69568;-53
2023/06/06 10:57:53;;;;;;;5.80;2.10;;;;;;;27.72;25.45;101038.19;108760;1259;62798;-54
2023/06/06 11:00:24;;;;;;;3.90;1.70;;;;;;;27.68;25.61;101034.98;108814;1260;57315;-54
2023/06/06 11:02:52;;;;;;;8.00;2.40;;;;;;;27.66;25.28;101034.38;108842;1260;57573;-54
2023/06/06 11:05:21;;;;;;;5.60;1.80;;;;;;;27.63;25.37;101031.73;108706;1259;65478;-50
2023/06/06 11:07:52;;;;;;;5.10;1.90;;;;;;;27.61;24.97;101027.30;108812;1259;61607;-52
2023/06/06 11:10:21;;;;;;;4.40;1.70;;;;;;;27.62;24.86;101027.54;108793;1259;63942;-52
2023/06/06 11:12:50;;;;;;;6.60;2.00;;;;;;;27.68;25.61;101022.26;108783;1259;58098;-52
2023/06/06 11:15:54;;;;;;;4.40;1.90;;;;;;;27.77;25.99;101021.16;108810;1259;58133;-52
2023/06/06 11:18:39;;;;;;;4.30;2.10;;;;;;;27.81;25.01;101019.80;108778;1259;64980;-53
2023/06/06 11:21:06;;;;;;;7.70;2.20;;;;;;;27.79;24.65;101017.59;108821;1259;60340;-53
2023/06/06 11:23:42;;;;;;;6.50;2.20;;;;;;;27.79;25.02;101017.92;108742;1260;64141;-53
2023/06/06 11:26:09;;;;;;;4.20;2.00;;;;;;;27.78;25.35;101015.38;108767;1259;57809;-52
2023/06/06 11:28:37;;;;;;;5.50;2.20;;;;;;;27.75;25.30;101014.36;108759;1259;58548;-53
2023/06/06 11:31:05;;;;;;;5.40;2.50;;;;;;;27.74;25.53;101011.43;108847;1260;64321;-53
2023/06/06 11:33:36;;;;;;;5.00;2.50;;;;;;;27.74;25.78;101013.55;108854;1258;60445;-53
2023/06/06 11:36:03;;;;;;;6.40;2.50;;;;;;;27.76;25.83;101012.79;108803;1259;63967;-53
2023/06/06 11:38:31;;;;;;;4.90;1.90;;;;;;;27.82;25.60;101008.11;108878;1257;57670;-52
2023/06/06 11:40:58;;;;;;;4.80;2.10;;;;;;;27.93;25.24;101003.08;108749;1257;57569;-52
2023/06/06 11:43:24;;;;;;;5.70;2.20;;;;;;;28.05;25.72;101003.67;108763;1258;57457;-51
2023/06/06 11:46:04;;;;;;;3.40;1.70;;;;;;;28.21;25.42;101001.21;108846;1258;59159;-53
2023/06/06 11:48:31;;;;;;;5.00;2.10;;;;;;;28.32;24.95;101001.55;108869;1258;63932;-53
2023/06/06 11:50:58;;;;;;;8.30;2.30;;;;;;;28.39;24.53;100999.64;108895;1257;57848;-53
2023/06/06 11:53:31;;;;;;;4.50;2.20;;;;;;;28.43;24.39;100994.27;108781;1260;57457;-52
2023/06/06 11:55:57;;;;;;;4.50;2.00;;;;;;;28.45;25.10;100993.48;108870;1259;64394;-53
2023/06/06 11:58:24;;;;;;;4.80;2.10;;;;;;;28.46;25.52;100988.27;108790;1259;61928;-53
2023/06/06 12:00:56;;;;;;;5.90;2.10;;;;;;;28.49;26.00;100984.61;108810;1257;63731;-54
2023/06/06 12:03:28;;;;;;;5.30;2.30;;;;;;;28.55;26.34;100983.63;108907;1257;57469;-53
2023/06/06 12:06:01;;;;;;;4.70;1.50;;;;;;;28.59;25.95;100982.81;108843;1257;57571;-53
2023/06/06 12:08:33;;;;;;;4.50;2.30;;;;;;;28.64;26.22;100984.77;108863;1257;64397;-52
2023/06/06 12:11:26;;;;;;;5.30;2.00;;;;;;;28.67;26.49;100982.36;108835;1257;60403;-53
2023/06/06 12:13:53;;;;;;;4.60;1.80;;;;;;;28.70;26.45;100975.98;108846;1257;65003;-54
2023/06/06 12:16:24;;;;;;;4.80;2.10;;;;;;;28.71;26.95;100975.44;108859;1258;57424;-54